Time;durP1;ratioP1;P1;durP2;ratioP2;P2;SDS_P1;SDS_P2;PMS_P1;PMS_P2;Temp;Humidity;BMP_temperature;BMP_pressure;BME280_temperature;BME280_humidity;BME280_pressure;Samples;Min_cycle;Max_cycle;Signal;HPM_P1;HPM_P2
2022/01/30 00:00:25;;;;;;;;;;;21.10;44.80;;;;;;5074727;28;19925;-40
2022/01/30 00:02:52;;;;;;;;;;;21.10;44.80;;;;;;5074387;28;19994;-43
2022/01/30 00:05:19;;;;;;;;;;;21.10;44.80;;;;;;5074424;28;19967;-40
2022/01/30 00:07:46;;;;;;;;;;;21.10;44.80;;;;;;5074394;28;19963;-41
2022/01/30 00:10:16;;;;;;;;;;;21.10;44.80;;;;;;5074360;28;19947;-42
2022/01/30 00:12:53;;;;;;;;;;;21.10;44.80;;;;;;5094674;28;19977;-39
2022/01/30 00:15:35;;;;;;;;;;;21.10;44.80;;;;;;5094562;28;20007;-40
2022/01/30 00:18:13;;;;;;;;;;;21.10;44.80;;;;;;5095811;28;19970;-39
2022/01/30 00:20:44;;;;;;;;;;;21.10;45.40;;;;;;5116290;28;19924;-42
2022/01/30 00:23:17;;;;;;;;;;;21.10;44.80;;;;;;5115724;28;19981;-42
2022/01/30 00:25:51;;;;;;;;;;;21.10;44.80;;;;;;5115549;28;20010;-41
2022/01/30 00:28:21;;;;;;;;;;;21.10;44.80;;;;;;5116695;28;20018;-39
2022/01/30 00:30:49;;;;;;;;;;;21.10;44.80;;;;;;5116927;28;20018;-40
2022/01/30 00:33:16;;;;;;;;;;;21.10;45.40;;;;;;5116818;28;19982;-40
2022/01/30 00:35:43;;;;;;;;;;;21.10;44.80;;;;;;5116854;28;19973;-41
2022/01/30 00:38:15;;;;;;;;;;;21.10;44.80;;;;;;5098375;28;19976;-41
2022/01/30 00:40:43;;;;;;;;;;;21.10;44.80;;;;;;5115447;27;19932;-42
2022/01/30 00:43:11;;;;;;;;;;;21.10;44.80;;;;;;5117524;28;19923;-43
2022/01/30 00:45:38;;;;;;;;;;;21.10;44.80;;;;;;5116325;28;20433;-41
2022/01/30 00:48:06;;;;;;;;;;;21.10;44.80;;;;;;5116293;28;20006;-40
2022/01/30 00:50:33;;;;;;;;;;;21.10;44.80;;;;;;5116561;28;20321;-41
2022/01/30 00:53:00;;;;;;;;;;;21.10;44.80;;;;;;5116012;28;19969;-41
2022/01/30 00:55:28;;;;;;;;;;;21.10;44.80;;;;;;5116152;28;19928;-40
2022/01/30 00:57:56;;;;;;;;;;;21.10;44.80;;;;;;5114861;28;19930;-39
2022/01/30 01:00:23;;;;;;;;;;;21.10;44.80;;;;;;5116349;28;19923;-42
2022/01/30 01:02:50;;;;;;;;;;;21.10;44.90;;;;;;5115871;28;19981;-43
2022/01/30 01:05:18;;;;;;;;;;;21.10;44.80;;;;;;5116829;28;19924;-41
2022/01/30 01:07:47;;;;;;;;;;;21.10;44.80;;;;;;5116226;28;20010;-43
2022/01/30 01:10:32;;;;;;;;;;;21.10;44.90;;;;;;5115829;28;19923;-40
2022/01/30 01:23:45;;;;;;;;;;;21.10;44.90;;;;;;5115433;28;19927;-39
2022/01/30 01:26:13;;;;;;;;;;;21.10;44.90;;;;;;5114904;27;20022;-41
2022/01/30 01:28:40;;;;;;;;;;;21.00;44.80;;;;;;5115766;28;19927;-43
2022/01/30 01:31:07;;;;;;;;;;;21.10;44.90;;;;;;5115316;28;19973;-40
2022/01/30 01:36:21;;;;;;;;;;;21.10;44.90;;;;;;5115545;28;19927;-46
2022/01/30 01:38:48;;;;;;;;;;;21.10;44.90;;;;;;5115610;28;19923;-43
2022/01/30 01:41:18;;;;;;;;;;;21.10;45.00;;;;;;5114273;28;19924;-40
2022/01/30 01:43:48;;;;;;;;;;;21.10;44.90;;;;;;5115551;28;20302;-41
2022/01/30 01:46:21;;;;;;;;;;;21.00;44.80;;;;;;5115158;28;20398;-41
2022/01/30 01:48:50;;;;;;;;;;;21.10;44.90;;;;;;5115127;28;19924;-41
2022/01/30 01:51:21;;;;;;;;;;;21.00;44.80;;;;;;5115361;28;20295;-41
2022/01/30 01:53:49;;;;;;;;;;;21.00;44.90;;;;;;5115539;28;20017;-40
2022/01/30 01:56:16;;;;;;;;;;;21.00;44.90;;;;;;5114133;28;19936;-40
2022/01/30 01:58:43;;;;;;;;;;;21.00;44.90;;;;;;5114538;28;20374;-39
2022/01/30 02:01:10;;;;;;;;;;;21.00;44.90;;;;;;5114758;28;19976;-42
2022/01/30 02:03:38;;;;;;;;;;;21.00;44.90;;;;;;5115165;28;19924;-40
2022/01/30 02:06:09;;;;;;;;;;;21.00;44.90;;;;;;5115075;28;19924;-41
2022/01/30 02:08:40;;;;;;;;;;;21.00;44.90;;;;;;5115073;28;19963;-42
2022/01/30 02:11:15;;;;;;;;;;;21.10;45.00;;;;;;5115069;28;19924;-39
2022/01/30 02:25:12;;;;;;;;;;;21.00;44.90;;;;;;5114163;28;20208;-42
2022/01/30 02:27:39;;;;;;;;;;;21.00;45.00;;;;;;5113577;28;20343;-42
2022/01/30 02:30:08;;;;;;;;;;;21.00;44.90;;;;;;5114701;28;19923;-40
2022/01/30 02:32:35;;;;;;;;;;;21.00;44.90;;;;;;5114564;28;19977;-40
2022/01/30 02:35:02;;;;;;;;;;;21.00;44.90;;;;;;5114314;28;20387;-41
2022/01/30 02:37:29;;;;;;;;;;;21.00;44.90;;;;;;5114229;28;20447;-43
2022/01/30 02:39:56;;;;;;;;;;;21.00;44.90;;;;;;5114567;28;19924;-43
2022/01/30 02:42:27;;;;;;;;;;;21.00;45.00;;;;;;5113405;28;19966;-42
2022/01/30 02:44:58;;;;;;;;;;;21.00;44.90;;;;;;5113805;28;20354;-40
2022/01/30 02:50:21;;;;;;;;;;;21.00;45.00;;;;;;5114510;28;19985;-42
2022/01/30 02:52:57;;;;;;;;;;;21.00;45.00;;;;;;5114024;28;19928;-41
2022/01/30 02:55:24;;;;;;;;;;;21.00;45.00;;;;;;5114460;28;19924;-44
2022/01/30 02:57:51;;;;;;;;;;;21.00;45.00;;;;;;5112761;28;20402;-39
2022/01/30 03:00:18;;;;;;;;;;;21.00;45.00;;;;;;5114078;28;20022;-41
2022/01/30 03:02:45;;;;;;;;;;;21.00;45.00;;;;;;5114277;28;19923;-43
2022/01/30 03:05:13;;;;;;;;;;;21.00;45.00;;;;;;5114323;28;19973;-44
2022/01/30 03:07:40;;;;;;;;;;;21.00;45.00;;;;;;5114306;28;20291;-42
2022/01/30 03:10:07;;;;;;;;;;;21.00;45.00;;;;;;5113987;28;19924;-41
2022/01/30 03:12:34;;;;;;;;;;;21.00;45.00;;;;;;5113077;28;19949;-42
2022/01/30 03:15:01;;;;;;;;;;;21.00;45.00;;;;;;5113958;28;19973;-39
2022/01/30 03:17:28;;;;;;;;;;;21.00;45.00;;;;;;5114144;28;20335;-39
2022/01/30 03:19:55;;;;;;;;;;;21.00;45.00;;;;;;5095685;28;20367;-43
2022/01/30 03:22:22;;;;;;;;;;;21.00;45.00;;;;;;5113969;28;19980;-44
2022/01/30 03:24:49;;;;;;;;;;;21.00;45.60;;;;;;5114987;28;20278;-42
2022/01/30 03:27:16;;;;;;;;;;;21.00;45.00;;;;;;5113315;28;20350;-41
2022/01/30 03:29:51;;;;;;;;;;;21.00;45.00;;;;;;5134169;28;19955;-41
2022/01/30 03:32:18;;;;;;;;;;;21.00;45.00;;;;;;5134550;28;19923;-40
2022/01/30 03:34:45;;;;;;;;;;;21.00;45.00;;;;;;5134626;28;19976;-44
2022/01/30 03:37:12;;;;;;;;;;;21.00;45.10;;;;;;5134483;28;20022;-42
2022/01/30 03:39:39;;;;;;;;;;;21.00;45.10;;;;;;5134223;28;20442;-43
2022/01/30 03:42:06;;;;;;;;;;;21.00;45.00;;;;;;5134521;28;19962;-41
2022/01/30 03:44:33;;;;;;;;;;;21.00;45.00;;;;;;5114159;28;19963;-42
2022/01/30 03:47:00;;;;;;;;;;;21.00;45.10;;;;;;5113924;28;20014;-42
2022/01/30 03:49:27;;;;;;;;;;;21.00;45.10;;;;;;5113625;28;19924;-42
2022/01/30 03:51:54;;;;;;;;;;;21.00;45.00;;;;;;5113389;28;20406;-43
2022/01/30 03:54:21;;;;;;;;;;;21.00;45.10;;;;;;5113595;28;20093;-44
2022/01/30 03:56:48;;;;;;;;;;;21.00;45.10;;;;;;5115764;28;20026;-41
2022/01/30 03:59:14;;;;;;;;;;;21.00;45.10;;;;;;5116100;27;19923;-42
2022/01/30 04:01:41;;;;;;;;;;;20.90;45.00;;;;;;5117393;28;20351;-43
2022/01/30 04:04:09;;;;;;;;;;;21.00;45.10;;;;;;5117173;28;19928;-42
2022/01/30 04:06:36;;;;;;;;;;;20.90;45.00;;;;;;5117403;28;20292;-41
2022/01/30 04:09:04;;;;;;;;;;;20.90;45.00;;;;;;5117357;28;20340;-39
2022/01/30 04:11:31;;;;;;;;;;;20.90;45.00;;;;;;5117360;28;19923;-39
2022/01/30 04:13:58;;;;;;;;;;;21.00;45.10;;;;;;5116633;27;19969;-41
2022/01/30 04:16:25;;;;;;;;;;;20.90;45.00;;;;;;5116933;28;19924;-42
2022/01/30 04:18:52;;;;;;;;;;;20.90;45.00;;;;;;5116846;28;19975;-40
2022/01/30 04:21:19;;;;;;;;;;;20.90;45.10;;;;;;5116739;28;19976;-39
2022/01/30 04:23:46;;;;;;;;;;;20.90;45.10;;;;;;5116605;28;19930;-40
2022/01/30 04:26:13;;;;;;;;;;;20.90;45.00;;;;;;5116744;28;19937;-40
2022/01/30 04:28:40;;;;;;;;;;;20.90;45.10;;;;;;5115505;27;20375;-40
2022/01/30 04:31:07;;;;;;;;;;;20.90;45.00;;;;;;5116839;28;19924;-43
2022/01/30 04:33:34;;;;;;;;;;;20.90;45.00;;;;;;5117464;28;19924;-41
2022/01/30 04:36:03;;;;;;;;;;;20.90;45.10;;;;;;5116538;28;19937;-41
2022/01/30 04:38:40;;;;;;;;;;;20.90;45.10;;;;;;5098536;28;19924;-40
2022/01/30 05:05:56;;;;;;;;;;;21.00;45.20;;;;;;5116335;28;19927;-40
2022/01/30 05:08:23;;;;;;;;;;;20.90;45.10;;;;;;5115466;28;19924;-41
2022/01/30 05:10:50;;;;;;;;;;;20.90;45.10;;;;;;5116168;28;19924;-41
2022/01/30 05:13:21;;;;;;;;;;;20.90;45.10;;;;;;5115626;28;20342;-41
2022/01/30 05:15:48;;;;;;;;;;;20.90;45.10;;;;;;5115589;28;19923;-41
2022/01/30 05:18:22;;;;;;;;;;;20.90;45.10;;;;;;5115953;28;19963;-41
2022/01/30 05:20:49;;;;;;;;;;;20.90;45.20;;;;;;5115544;28;19974;-41
2022/01/30 05:23:19;;;;;;;;;;;20.90;45.20;;;;;;5115425;28;19924;-43
2022/01/30 05:25:46;;;;;;;;;;;20.90;45.20;;;;;;5115927;28;19924;-41
2022/01/30 05:28:14;;;;;;;;;;;20.90;45.20;;;;;;5115836;28;19973;-42
2022/01/30 05:30:42;;;;;;;;;;;20.90;45.20;;;;;;5114520;28;20003;-44
2022/01/30 05:33:09;;;;;;;;;;;20.90;45.20;;;;;;5115340;28;19923;-41
2022/01/30 05:35:36;;;;;;;;;;;20.90;45.20;;;;;;5115677;28;19924;-41
2022/01/30 05:38:04;;;;;;;;;;;20.90;45.20;;;;;;5115577;28;19967;-41
2022/01/30 05:40:32;;;;;;;;;;;20.90;45.20;;;;;;5115625;28;19987;-40
2022/01/30 05:42:59;;;;;;;;;;;20.90;45.20;;;;;;5115524;28;20002;-43
2022/01/30 05:45:32;;;;;;;;;;;20.90;45.20;;;;;;5113956;28;19924;-39
2022/01/30 05:48:04;;;;;;;;;;;20.90;45.20;;;;;;5115509;28;19923;-40
2022/01/30 05:50:31;;;;;;;;;;;20.90;45.20;;;;;;5115137;28;19972;-42
2022/01/30 05:52:58;;;;;;;;;;;20.90;45.20;;;;;;5115169;28;19924;-42
2022/01/30 05:55:25;;;;;;;;;;;20.90;45.20;;;;;;5115003;28;19930;-40
2022/01/30 05:57:52;;;;;;;;;;;20.90;45.30;;;;;;5115195;27;19928;-41
2022/01/30 06:00:19;;;;;;;;;;;20.90;45.30;;;;;;5113985;27;19924;-40
2022/01/30 06:02:46;;;;;;;;;;;20.90;45.30;;;;;;5114714;28;19930;-41
2022/01/30 06:05:15;;;;;;;;;;;20.90;45.30;;;;;;5114805;28;19962;-42
2022/01/30 06:07:52;;;;;;;;;;;20.90;45.30;;;;;;5115101;28;19971;-40
2022/01/30 06:10:23;;;;;;;;;;;20.90;45.30;;;;;;5114796;28;20402;-40
2022/01/30 06:12:50;;;;;;;;;;;20.90;45.30;;;;;;5115037;28;19967;-41
2022/01/30 06:15:16;;;;;;;;;;;20.80;45.20;;;;;;5113703;28;19924;-40
2022/01/30 06:17:43;;;;;;;;;;;20.80;45.30;;;;;;5114453;28;19924;-41
2022/01/30 06:20:11;;;;;;;;;;;20.80;45.20;;;;;;5114374;28;19923;-40
2022/01/30 06:22:39;;;;;;;;;;;20.90;45.30;;;;;;5114935;28;20007;-44
2022/01/30 06:25:12;;;;;;;;;;;20.80;45.20;;;;;;5097712;28;20010;-40
2022/01/30 06:27:39;;;;;;;;;;;20.90;45.30;;;;;;5114762;28;19973;-43
2022/01/30 06:30:07;;;;;;;;;;;20.80;45.30;;;;;;5113512;28;19967;-42
2022/01/30 06:32:34;;;;;;;;;;;20.80;45.30;;;;;;5114619;28;20272;-41
2022/01/30 06:35:05;;;;;;;;;;;20.80;45.30;;;;;;5114362;28;19924;-41
2022/01/30 06:37:32;;;;;;;;;;;20.80;45.30;;;;;;5114654;28;20022;-40
2022/01/30 06:39:59;;;;;;;;;;;20.80;45.30;;;;;;5114230;28;20383;-39
2022/01/30 06:42:29;;;;;;;;;;;20.80;45.30;;;;;;5114588;28;19924;-43
2022/01/30 06:44:55;;;;;;;;;;;20.80;45.30;;;;;;5113330;28;19955;-40
2022/01/30 06:47:22;;;;;;;;;;;20.80;45.40;;;;;;5114245;28;19978;-40
2022/01/30 06:49:49;;;;;;;;;;;20.80;45.30;;;;;;5114174;28;20446;-42
2022/01/30 06:52:16;;;;;;;;;;;20.80;45.30;;;;;;5113972;28;19931;-43
2022/01/30 06:54:44;;;;;;;;;;;20.80;45.30;;;;;;5114121;28;19923;-41
2022/01/30 06:57:10;;;;;;;;;;;20.80;45.30;;;;;;5114443;28;19935;-41
2022/01/30 06:59:37;;;;;;;;;;;20.80;45.30;;;;;;5112811;28;19924;-42
2022/01/30 07:02:06;;;;;;;;;;;20.80;45.30;;;;;;5096313;28;19955;-43
2022/01/30 07:04:34;;;;;;;;;;;20.80;45.30;;;;;;5114355;28;20398;-44
2022/01/30 07:07:03;;;;;;;;;;;20.80;45.30;;;;;;5114032;28;19924;-40
2022/01/30 07:09:31;;;;;;;;;;;20.80;45.40;;;;;;5114326;28;20329;-40
2022/01/30 07:11:58;;;;;;;;;;;20.80;45.40;;;;;;5113988;28;19977;-40
2022/01/30 07:14:25;;;;;;;;;;;20.80;45.40;;;;;;5114277;28;19989;-40
2022/01/30 07:16:52;;;;;;;;;;;20.80;45.40;;;;;;5112918;28;20491;-41
2022/01/30 07:19:19;;;;;;;;;;;20.80;45.40;;;;;;5095914;28;19923;-42
2022/01/30 07:21:46;;;;;;;;;;;20.80;45.40;;;;;;5113741;28;19946;-42
2022/01/30 07:24:13;;;;;;;;;;;20.80;45.40;;;;;;5113857;28;20407;-41
2022/01/30 07:26:40;;;;;;;;;;;20.80;45.40;;;;;;5113847;28;19971;-41
2022/01/30 07:29:07;;;;;;;;;;;20.80;45.40;;;;;;5114145;28;19927;-41
2022/01/30 07:31:34;;;;;;;;;;;20.80;45.50;;;;;;5114840;28;19955;-40
2022/01/30 07:34:01;;;;;;;;;;;20.80;45.50;;;;;;5118083;28;19924;-43
2022/01/30 07:36:30;;;;;;;;;;;20.80;45.50;;;;;;5117707;28;20411;-41
2022/01/30 07:38:57;;;;;;;;;;;20.80;45.50;;;;;;5117582;28;20023;-43
2022/01/30 07:41:24;;;;;;;;;;;20.80;45.50;;;;;;5099583;28;20383;-41
2022/01/30 07:43:51;;;;;;;;;;;20.80;45.50;;;;;;5117593;28;19973;-42
2022/01/30 07:46:18;;;;;;;;;;;20.80;45.50;;;;;;5116844;27;20015;-41
2022/01/30 07:48:45;;;;;;;;;;;20.80;45.50;;;;;;5117821;28;19970;-43
2022/01/30 07:51:12;;;;;;;;;;;20.80;45.50;;;;;;5117416;28;19967;-43
2022/01/30 07:53:39;;;;;;;;;;;20.80;45.50;;;;;;5118416;28;19968;-43
2022/01/30 07:56:06;;;;;;;;;;;20.80;45.40;;;;;;5117671;28;19955;-40
2022/01/30 07:58:33;;;;;;;;;;;20.80;45.50;;;;;;5117520;27;19971;-41
2022/01/30 08:01:00;;;;;;;;;;;20.80;45.40;;;;;;5116289;28;20014;-43
2022/01/30 08:03:27;;;;;;;;;;;20.80;45.40;;;;;;5117235;28;19927;-42
2022/01/30 08:05:54;;;;;;;;;;;20.80;45.40;;;;;;5118008;28;19930;-42
2022/01/30 08:08:21;;;;;;;;;;;20.80;45.40;;;;;;5117144;28;19924;-44
2022/01/30 08:10:48;;;;;;;;;;;20.80;45.40;;;;;;5117414;28;19993;-41
2022/01/30 08:13:16;;;;;;;;;;;20.80;45.40;;;;;;5117029;28;19946;-43
2022/01/30 08:15:45;;;;;;;;;;;20.80;45.30;;;;;;5115814;27;19928;-41
2022/01/30 08:18:12;;;;;;;;;;;20.80;45.30;;;;;;5117162;28;19931;-45
2022/01/30 08:20:39;;;;;;;;;;;20.80;45.30;;;;;;5116823;28;19946;-44
2022/01/30 08:23:14;;;;;;;;;;;20.80;45.30;;;;;;5116648;28;19923;-43
2022/01/30 08:25:42;;;;;;;;;;;20.80;45.30;;;;;;5116814;28;20386;-41
2022/01/30 08:28:09;;;;;;;;;;;20.80;45.30;;;;;;5117024;28;20337;-44
2022/01/30 08:30:36;;;;;;;;;;;20.80;45.30;;;;;;5115548;27;20410;-43
2022/01/30 08:33:03;;;;;;;;;;;20.80;45.30;;;;;;5116951;28;19928;-41
2022/01/30 08:35:31;;;;;;;;;;;20.80;45.30;;;;;;5116599;28;19966;-44
2022/01/30 08:37:58;;;;;;;;;;;20.80;45.20;;;;;;5116555;28;19928;-44
2022/01/30 08:40:26;;;;;;;;;;;20.80;45.20;;;;;;5116431;28;19924;-40
2022/01/30 08:42:53;;;;;;;;;;;20.80;45.20;;;;;;5097253;28;19927;-44
2022/01/30 08:45:21;;;;;;;;;;;20.80;45.20;;;;;;5116327;28;19924;-43
2022/01/30 08:47:48;;;;;;;;;;;20.90;45.30;;;;;;5115322;28;19931;-40
2022/01/30 08:50:16;;;;;;;;;;;20.80;45.20;;;;;;5116626;28;19946;-41
2022/01/30 08:52:43;;;;;;;;;;;20.80;45.20;;;;;;5116392;28;19927;-43
2022/01/30 08:55:11;;;;;;;;;;;20.90;45.30;;;;;;5098511;28;19924;-40
2022/01/30 08:57:38;;;;;;;;;;;20.90;45.30;;;;;;5116201;28;19924;-41
2022/01/30 09:00:08;;;;;;;;;;;20.90;45.20;;;;;;5116306;28;19930;-44
2022/01/30 09:02:35;;;;;;;;;;;20.90;45.20;;;;;;5115109;28;20291;-42
2022/01/30 09:05:03;;;;;;;;;;;20.90;45.10;;;;;;5116039;28;19966;-41
2022/01/30 09:07:30;;;;;;;;;;;20.90;45.10;;;;;;5115970;28;20436;-43
2022/01/30 09:09:57;;;;;;;;;;;20.90;45.10;;;;;;5098253;28;20294;-38
2022/01/30 09:12:24;;;;;;;;;;;20.90;45.10;;;;;;5115849;28;19978;-42
2022/01/30 09:14:51;;;;;;;;;;;20.90;45.60;;;;;;5116157;28;19927;-41
2022/01/30 09:17:18;;;;;;;;;;;20.90;45.00;;;;;;5114875;27;19967;-42
2022/01/30 09:19:47;;;;;;;;;;;21.00;45.10;;;;;;5115669;28;19924;-41
2022/01/30 09:22:16;;;;;;;;;;;21.00;45.00;;;;;;5115510;28;19924;-43
2022/01/30 09:24:43;;;;;;;;;;;21.00;44.90;;;;;;5097901;28;19928;-40
2022/01/30 09:27:10;;;;;;;;;;;21.10;45.00;;;;;;5115594;28;19966;-43
2022/01/30 09:29:38;;;;;;;;;;;21.10;44.90;;;;;;5115833;28;20260;-40
2022/01/30 09:32:06;;;;;;;;;;;21.10;44.80;;;;;;5114358;28;19924;-42
2022/01/30 09:34:33;;;;;;;;;;;21.10;44.80;;;;;;5115450;28;20375;-40
2022/01/30 09:37:01;;;;;;;;;;;21.10;44.80;;;;;;5115365;28;19924;-42
2022/01/30 09:39:28;;;;;;;;;;;21.10;44.80;;;;;;5115590;28;20325;-41
2022/01/30 09:41:57;;;;;;;;;;;21.10;44.80;;;;;;5115314;28;19924;-41
2022/01/30 09:44:24;;;;;;;;;;;21.10;44.80;;;;;;5115560;28;19923;-41
2022/01/30 09:46:51;;;;;;;;;;;21.10;44.70;;;;;;5114053;27;19924;-40
2022/01/30 09:49:22;;;;;;;;;;;21.10;44.70;;;;;;5115474;28;20286;-43
2022/01/30 09:51:50;;;;;;;;;;;21.20;44.80;;;;;;5115007;28;19924;-41
2022/01/30 09:54:17;;;;;;;;;;;21.20;44.70;;;;;;5113790;28;20419;-43
2022/01/30 09:56:46;;;;;;;;;;;21.20;44.70;;;;;;5117565;27;19993;-40
2022/01/30 09:59:20;;;;;;;;;;;21.20;45.20;;;;;;5117046;27;19931;-40
2022/01/30 10:01:52;;;;;;;;;;;21.30;45.80;;;;;;5104023;28;19967;-41
2022/01/30 10:04:21;;;;;;;;;;;21.30;45.30;;;;;;5114689;28;19930;-44
2022/01/30 10:07:11;;;;;;;;;;;21.30;45.00;;;;;;5133594;27;19930;-41
2022/01/30 10:09:44;;;;;;;;;;;21.30;44.90;;;;;;5135166;27;19924;-43
2022/01/30 10:12:15;;;;;;;;;;;21.40;44.80;;;;;;5135401;27;19930;-41
2022/01/30 10:15:01;;;;;;;;;;;21.40;44.80;;;;;;5103839;28;19928;-45
2022/01/30 10:17:32;;;;;;;;;;;21.40;44.70;;;;;;5113429;27;19923;-42
2022/01/30 10:20:25;;;;;;;;;;;21.40;44.60;;;;;;5113989;28;19924;-41
2022/01/30 10:22:56;;;;;;;;;;;21.50;44.60;;;;;;5114308;28;19977;-47
2022/01/30 10:25:31;;;;;;;;;;;21.50;44.50;;;;;;5114127;28;19924;-41
2022/01/30 10:28:15;;;;;;;;;;;21.50;44.50;;;;;;5114106;28;19931;-43
2022/01/30 10:30:45;;;;;;;;;;;21.50;44.50;;;;;;5118041;27;20419;-44
2022/01/30 10:33:14;;;;;;;;;;;21.50;44.40;;;;;;5120076;27;19928;-44
2022/01/30 10:35:46;;;;;;;;;;;21.50;44.40;;;;;;5114462;28;19924;-42
2022/01/30 10:38:22;;;;;;;;;;;21.60;44.50;;;;;;5114102;28;20010;-44
2022/01/30 10:40:53;;;;;;;;;;;21.60;44.40;;;;;;5114251;28;20305;-41
2022/01/30 10:43:22;;;;;;;;;;;21.60;44.40;;;;;;5114906;28;20014;-43
2022/01/30 10:45:52;;;;;;;;;;;21.60;44.30;;;;;;5114126;28;19923;-41
2022/01/30 10:48:23;;;;;;;;;;;21.60;44.30;;;;;;5112700;28;20260;-42
2022/01/30 10:50:55;;;;;;;;;;;21.60;44.30;;;;;;5114344;28;19928;-41
2022/01/30 10:53:25;;;;;;;;;;;21.60;44.20;;;;;;5113581;28;19927;-47
2022/01/30 10:55:54;;;;;;;;;;;21.70;44.30;;;;;;5113934;28;19935;-47
2022/01/30 10:58:23;;;;;;;;;;;21.70;44.20;;;;;;5095850;28;19923;-45
2022/01/30 11:00:53;;;;;;;;;;;21.70;44.10;;;;;;5113916;28;20291;-45
2022/01/30 11:03:39;;;;;;;;;;;21.70;44.10;;;;;;5112628;28;19930;-44
2022/01/30 11:06:10;;;;;;;;;;;21.70;44.10;;;;;;5130213;27;19930;-47
2022/01/30 11:08:40;;;;;;;;;;;21.70;44.10;;;;;;5138642;27;19968;-44
2022/01/30 11:11:27;;;;;;;;;;;21.70;44.00;;;;;;5138943;27;20298;-45
2022/01/30 11:19:20;;;;;;;;;;;21.70;44.00;;;;;;5118053;27;19931;-41
2022/01/30 11:21:48;;;;;;;;;;;21.80;44.10;;;;;;5117557;28;19973;-46
2022/01/30 11:24:16;;;;;;;;;;;21.80;44.10;;;;;;5117608;28;19974;-43
2022/01/30 11:26:43;;;;;;;;;;;21.80;44.10;;;;;;5117835;28;19962;-42
2022/01/30 11:29:11;;;;;;;;;;;21.80;44.10;;;;;;5117391;28;20014;-42
2022/01/30 11:31:38;;;;;;;;;;;21.80;44.10;;;;;;5117298;28;19924;-41
2022/01/30 11:34:06;;;;;;;;;;;21.80;44.10;;;;;;5116782;28;20006;-43
2022/01/30 11:36:33;;;;;;;;;;;21.80;44.30;;;;;;5117327;28;19923;-41
2022/01/30 11:39:01;;;;;;;;;;;21.80;44.10;;;;;;5117710;28;19924;-45
2022/01/30 11:41:31;;;;;;;;;;;21.80;44.10;;;;;;5117013;28;19924;-43
2022/01/30 11:44:17;;;;;;;;;;;21.80;44.10;;;;;;5117429;28;20291;-43
2022/01/30 11:46:44;;;;;;;;;;;21.80;44.10;;;;;;5116936;28;19928;-42
2022/01/30 11:49:13;;;;;;;;;;;21.90;44.10;;;;;;5116121;27;19924;-40
2022/01/30 11:51:54;;;;;;;;;;;21.90;44.10;;;;;;5116785;28;20017;-44
2022/01/30 11:54:37;;;;;;;;;;;21.90;44.60;;;;;;5099159;28;19930;-47
2022/01/30 11:57:24;;;;;;;;;;;21.90;44.00;;;;;;5117125;28;19975;-44
2022/01/30 11:59:51;;;;;;;;;;;21.90;44.00;;;;;;5116995;28;20435;-41
2022/01/30 12:02:31;;;;;;;;;;;21.90;44.00;;;;;;5117445;28;19923;-44
2022/01/30 12:05:03;;;;;;;;;;;21.90;44.00;;;;;;5121020;27;19923;-41
2022/01/30 12:07:33;;;;;;;;;;;21.90;44.00;;;;;;5137809;27;19923;-42
2022/01/30 12:10:16;;;;;;;;;;;21.90;43.90;;;;;;5137496;27;19924;-46
2022/01/30 12:12:50;;;;;;;;;;;21.90;43.90;;;;;;5137435;27;19923;-42
2022/01/30 12:15:36;;;;;;;;;;;21.90;43.90;;;;;;5137691;27;19977;-42
2022/01/30 12:18:04;;;;;;;;;;;21.90;43.90;;;;;;5133481;27;20332;-41
2022/01/30 12:20:32;;;;;;;;;;;21.90;43.90;;;;;;5116586;28;20284;-40
2022/01/30 12:22:59;;;;;;;;;;;21.90;43.90;;;;;;5116465;28;19972;-42
2022/01/30 12:25:31;;;;;;;;;;;21.90;43.90;;;;;;5116625;28;19923;-44
2022/01/30 12:28:00;;;;;;;;;;;21.90;43.90;;;;;;5116922;28;20290;-41
2022/01/30 12:30:33;;;;;;;;;;;21.90;44.00;;;;;;5116694;28;20299;-44
2022/01/30 12:33:01;;;;;;;;;;;21.90;44.00;;;;;;5115979;27;19935;-42
2022/01/30 12:35:28;;;;;;;;;;;21.90;44.00;;;;;;5116264;28;19931;-41
2022/01/30 12:37:55;;;;;;;;;;;21.90;44.00;;;;;;5116662;28;19962;-42
2022/01/30 12:40:23;;;;;;;;;;;21.90;44.00;;;;;;5116556;28;20022;-41
2022/01/30 12:42:49;;;;;;;;;;;21.90;44.00;;;;;;5116236;28;19924;-40
2022/01/30 12:45:16;;;;;;;;;;;21.90;44.00;;;;;;5116537;28;19923;-43
2022/01/30 12:47:52;;;;;;;;;;;21.90;44.10;;;;;;5116511;28;19924;-45
2022/01/30 12:50:20;;;;;;;;;;;21.90;44.10;;;;;;5114908;27;20432;-42
2022/01/30 12:52:49;;;;;;;;;;;22.00;44.10;;;;;;5098218;28;19931;-43
2022/01/30 12:55:18;;;;;;;;;;;21.90;44.70;;;;;;5116717;28;20395;-42
2022/01/30 12:57:45;;;;;;;;;;;21.90;44.00;;;;;;5116299;28;19959;-43
2022/01/30 13:00:14;;;;;;;;;;;22.00;44.10;;;;;;5097868;28;19969;-45
2022/01/30 13:02:58;;;;;;;;;;;22.00;44.10;;;;;;5115932;28;20383;-46
2022/01/30 13:05:26;;;;;;;;;;;22.00;44.00;;;;;;5123554;27;19924;-42
2022/01/30 13:07:54;;;;;;;;;;;22.00;44.00;;;;;;5136590;27;19972;-42
2022/01/30 13:10:21;;;;;;;;;;;22.00;44.00;;;;;;5136306;27;19976;-42
2022/01/30 13:12:48;;;;;;;;;;;22.00;44.60;;;;;;5136238;27;20390;-41
2022/01/30 13:15:17;;;;;;;;;;;22.00;44.00;;;;;;5136181;27;19978;-43
2022/01/30 13:17:44;;;;;;;;;;;22.00;44.00;;;;;;5136462;27;19930;-42
2022/01/30 13:20:12;;;;;;;;;;;22.00;44.00;;;;;;5119778;27;19924;-41
2022/01/30 13:22:43;;;;;;;;;;;22.00;44.00;;;;;;5115634;28;20059;-43
2022/01/30 13:25:13;;;;;;;;;;;22.00;44.00;;;;;;5115787;28;19958;-42
2022/01/30 13:27:41;;;;;;;;;;;22.00;44.00;;;;;;5115727;28;20015;-44
2022/01/30 13:30:09;;;;;;;;;;;22.00;44.00;;;;;;5114732;28;20379;-42
2022/01/30 13:32:40;;;;;;;;;;;22.00;44.00;;;;;;5115182;28;19924;-44
2022/01/30 13:35:13;;;;;;;;;;;22.00;44.00;;;;;;5114331;28;19966;-44
2022/01/30 13:37:41;;;;;;;;;;;22.00;44.00;;;;;;5115217;28;19924;-41
2022/01/30 13:40:18;;;;;;;;;;;22.00;43.90;;;;;;5115410;28;19969;-42
2022/01/30 13:48:05;;;;;;;;;;;22.00;43.90;;;;;;5102491;28;19977;-45
2022/01/30 13:51:03;;;;;;;;;;;22.00;43.90;;;;;;5113850;28;20321;-42
2022/01/30 13:53:31;;;;;;;;;;;22.00;43.90;;;;;;5113885;28;19931;-41
2022/01/30 13:56:02;;;;;;;;;;;22.00;43.90;;;;;;5114830;28;19930;-42
2022/01/30 13:58:41;;;;;;;;;;;22.00;43.90;;;;;;5115126;28;19993;-41
2022/01/30 14:01:10;;;;;;;;;;;22.10;44.00;;;;;;5114885;28;19969;-42
2022/01/30 14:03:38;;;;;;;;;;;22.10;44.00;;;;;;5114706;28;19973;-41
2022/01/30 14:06:19;;;;;;;;;;;22.10;43.90;;;;;;5128414;27;20353;-40
2022/01/30 14:08:53;;;;;;;;;;;22.10;43.90;;;;;;5135177;27;19945;-43
2022/01/30 14:11:28;;;;;;;;;;;22.10;43.90;;;;;;5135455;27;19962;-42
2022/01/30 14:13:59;;;;;;;;;;;22.10;43.90;;;;;;5135064;27;19971;-42
2022/01/30 14:16:34;;;;;;;;;;;22.10;44.50;;;;;;5135422;27;19924;-44
2022/01/30 14:19:02;;;;;;;;;;;22.10;43.90;;;;;;5135195;27;19972;-41
2022/01/30 14:21:32;;;;;;;;;;;22.10;43.90;;;;;;5113949;28;19924;-41
2022/01/30 14:24:12;;;;;;;;;;;22.10;43.90;;;;;;5114368;28;19931;-41
2022/01/30 14:26:39;;;;;;;;;;;22.10;43.90;;;;;;5114495;28;19959;-41
2022/01/30 14:29:24;;;;;;;;;;;22.10;43.90;;;;;;5114518;28;19924;-43
2022/01/30 14:31:52;;;;;;;;;;;22.10;43.90;;;;;;5114472;28;19923;-40
2022/01/30 14:34:20;;;;;;;;;;;22.10;43.90;;;;;;5113512;28;19923;-44
2022/01/30 14:36:48;;;;;;;;;;;22.10;43.90;;;;;;5114168;28;19975;-43
2022/01/30 14:39:15;;;;;;;;;;;22.10;43.90;;;;;;5114125;28;19939;-42
2022/01/30 14:41:42;;;;;;;;;;;22.10;43.90;;;;;;5113163;28;20018;-41
2022/01/30 14:44:09;;;;;;;;;;;22.10;43.90;;;;;;5114386;28;19928;-41
2022/01/30 14:46:36;;;;;;;;;;;22.10;43.90;;;;;;5114077;28;19923;-42
2022/01/30 14:49:03;;;;;;;;;;;22.10;43.90;;;;;;5114355;28;19976;-41
2022/01/30 14:51:31;;;;;;;;;;;22.10;43.90;;;;;;5112675;28;20007;-43
2022/01/30 14:53:58;;;;;;;;;;;22.10;43.90;;;;;;5114250;28;19959;-42
2022/01/30 14:56:25;;;;;;;;;;;22.10;43.90;;;;;;5114235;28;19928;-43
2022/01/30 14:58:52;;;;;;;;;;;22.10;43.90;;;;;;5113893;28;19930;-42
2022/01/30 15:01:19;;;;;;;;;;;22.10;43.90;;;;;;5113982;28;20351;-40
2022/01/30 15:03:47;;;;;;;;;;;22.10;43.90;;;;;;5096716;28;19930;-42
2022/01/30 15:06:14;;;;;;;;;;;22.10;44.00;;;;;;5114115;28;19946;-40
2022/01/30 15:08:41;;;;;;;;;;;22.10;44.00;;;;;;5114136;28;19977;-42
2022/01/30 15:11:07;;;;;;;;;;;22.10;44.00;;;;;;5114105;28;20000;-42
2022/01/30 15:13:37;;;;;;;;;;;22.10;44.00;;;;;;5113811;28;19928;-44
2022/01/30 15:16:10;;;;;;;;;;;22.10;44.00;;;;;;5114067;28;20351;-41
2022/01/30 15:18:42;;;;;;;;;;;22.10;44.00;;;;;;5096875;28;19924;-43
2022/01/30 15:21:10;;;;;;;;;;;22.10;44.00;;;;;;5112506;28;20010;-43
2022/01/30 15:23:37;;;;;;;;;;;22.10;44.10;;;;;;5113814;28;20015;-41
2022/01/30 15:26:05;;;;;;;;;;;22.10;44.10;;;;;;5113661;28;20109;-41
2022/01/30 15:28:32;;;;;;;;;;;22.10;44.00;;;;;;5114012;28;20286;-43
2022/01/30 15:31:00;;;;;;;;;;;22.10;44.10;;;;;;5095477;28;19923;-44